Date,TemperatureHighF,TemperatureAvgF,TemperatureLowF,DewpointHighF,DewpointAvgF,DewpointLowF,HumidityHigh,HumidityAvg,HumidityLow,PressureMaxIn,PressureMinIn,WindSpeedMaxMPH,WindSpeedAvgMPH,GustSpeedMaxMPH,PrecipitationSumIn
2013-1-1,34.1,25.0,15.9,29.0,16.7,9.0,82,71,55,30.04,29.87,14,5,18,0.00
2013-1-2,27.8,22.3,16.9,18.0,15.4,13.0,85,75,66,30.19,30.01,17,6,18,0.00
2013-1-3,31.9,23.4,17.0,28.0,10.0,-99.9,91,76,77,30.16,29.98,20,-93,23,0.00
2013-1-4,34.0,31.0,27.3,27.0,25.0,21.0,86,78,74,30.05,29.89,38,16,45,0.00
2013-1-5,34.8,31.3,28.8,30.0,26.0,24.0,87,81,74,30.28,30.04,14,7,19,0.00
2013-1-6,36.5,35.4,33.4,34.0,33.0,28.0,93,90,76,30.10,29.87,25,8,25,0.06
2013-1-7,35.2,30.1,25.1,29.0,24.9,21.0,88,81,73,30.39,30.11,17,8,25,0.00
2013-1-8,37.1,34.4,30.4,32.0,29.7,26.0,95,83,77,30.30,30.14,16,6,19,0.00
2013-1-9,45.3,39.6,33.4,38.0,32.4,27.0,82,75,64,30.36,29.98,41,11,45,0.00
2013-1-10,43.3,36.5,31.7,31.0,29.0,28.0,85,75,59,30.60,30.35,7,2,12,0.00
2013-1-11,49.6,43.0,34.8,46.0,38.2,28.0,93,83,72,30.35,29.83,13,5,22,0.06
2013-1-12,59.1,52.5,47.4,52.0,48.6,45.0,93,87,76,29.95,29.89,18,7,26,0.00
2013-1-13,63.8,53.4,44.5,57.0,50.6,44.0,97,90,78,29.91,29.70,23,7,32,0.57
2013-1-14,44.4,32.7,25.5,44.0,27.1,21.0,97,80,68,30.39,29.74,15,6,28,0.09
2013-1-15,32.0,27.8,24.5,24.0,22.0,19.0,88,79,62,30.40,30.15,9,2,10,0.00
2013-1-16,37.4,32.7,28.0,31.0,26.8,23.0,86,79,71,30.14,29.80,23,6,29,0.00
2013-1-17,35.4,25.8,16.2,30.0,20.2,14.0,91,79,73,30.17,29.84,16,7,25,0.00
2013-1-18,35.2,22.2,13.2,24.0,14.5,8.0,92,73,58,30.46,30.01,18,7,31,0.00
2013-1-19,48.5,42.2,35.2,33.0,28.8,24.0,69,60,47,30.01,29.53,24,13,38,0.00
2013-1-20,48.3,29.7,18.2,36.0,19.3,11.0,83,66,49,30.09,29.47,38,14,51,0.01
2013-1-21,20.5,14.8,11.6,16.0,-7.3,-99.9,89,61,54,30.07,29.86,10,-163,22,0.00
2013-1-22,12.2,8.8,5.9,1.0,-2.1,-4.0,68,62,53,30.21,29.91,21,9,27,0.00
2013-1-23,15.2,10.8,5.3,4.0,0.3,-3.0,78,63,49,30.23,30.07,10,4,14,0.00
2013-1-24,14.9,12.1,4.7,12.0,5.6,-1.0,90,75,63,30.52,30.07,11,3,15,0.00
2013-1-25,17.8,12.1,4.3,11.0,6.6,-1.0,91,79,64,30.50,30.05,6,2,9,0.00
2013-1-26,27.1,18.3,8.8,19.0,13.0,6.0,91,80,57,30.38,30.07,4,1,7,0.00
2013-1-27,29.4,21.1,8.6,24.0,15.6,6.0,93,80,64,30.53,30.29,9,2,10,0.00
2013-1-28,42.2,35.6,25.5,41.0,33.5,18.0,97,92,73,30.29,29.82,16,5,23,0.35
2013-1-29,54.2,42.2,34.9,53.0,41.3,34.0,97,96,95,30.01,29.65,12,3,16,0.62
2013-1-30,62.8,56.7,50.2,53.0,50.3,47.0,96,79,64,29.64,29.02,23,10,31,0.31
2013-1-31,48.8,28.1,20.8,45.0,19.6,8.0,90,71,45,29.74,29.04,29,14,41,0.00
2013-2-1,22.0,18.8,15.8,15.0,11.6,6.0,86,74,59,30.20,29.74,17,7,23,0.00
2013-2-2,20.2,17.8,14.1,17.0,12.9,4.0,89,81,63,30.19,29.98,17,5,22,0.00
2013-2-3,24.2,17.7,7.2,18.0,12.5,4.0,90,80,60,29.98,29.78,10,2,16,0.00
2013-2-4,19.5,16.1,11.9,11.0,9.2,6.0,87,74,62,29.97,29.86,14,5,20,0.00
2013-2-5,27.8,21.7,15.5,21.0,14.6,11.0,87,75,55,29.95,29.82,12,4,19,0.00
2013-2-6,26.9,23.4,14.9,23.0,14.8,10.0,84,70,53,30.34,29.86,13,4,19,0.00
2013-2-7,30.4,24.0,13.3,20.0,15.9,9.0,87,72,58,30.36,30.02,15,5,20,0.00
2013-2-8,31.7,25.2,17.5,30.0,22.1,15.0,92,88,76,30.12,29.73,10,4,14,0.00
2013-2-9,21.8,17.1,11.1,16.0,13.3,8.0,90,85,75,30.39,30.13,6,2,8,0.00
2013-2-10,40.3,18.3,-4.6,26.0,9.7,-8.0,89,72,43,30.39,29.88,7,2,16,0.12
2013-2-11,47.2,37.8,33.7,40.0,31.0,23.0,95,77,52,29.89,29.55,33,12,43,0.14
2013-2-12,34.2,32.8,31.0,29.0,25.7,23.0,81,75,65,29.95,29.69,28,11,30,0.00
2013-2-13,36.8,30.9,23.9,24.0,22.3,19.0,85,71,56,29.90,29.74,9,2,12,0.00
2013-2-14,38.3,31.7,21.0,34.0,26.3,18.0,90,81,63,29.88,29.72,23,6,31,0.10
2013-2-15,37.6,31.0,20.0,31.0,21.9,14.0,79,69,57,30.05,29.73,20,9,32,0.00
2013-2-16,28.8,23.0,17.6,19.0,14.7,9.0,87,71,51,30.04,29.88,10,3,14,0.00
2013-2-17,21.4,16.0,11.8,18.0,8.4,3.0,88,72,56,30.22,29.89,18,7,23,0.00
2013-2-18,34.3,22.5,6.1,20.0,10.7,2.0,86,62,37,30.26,29.82,14,4,15,0.00
2013-2-19,43.7,34.1,23.9,37.0,26.8,18.0,91,76,53,29.81,29.53,34,13,39,0.37
2013-2-20,24.1,20.9,19.4,17.0,13.1,10.0,84,72,63,30.09,29.73,23,11,30,0.00
2013-2-21,23.5,19.7,15.8,15.0,12.2,9.0,82,73,62,30.40,30.06,13,6,21,0.00
2013-2-22,36.1,28.5,21.5,31.0,22.8,15.0,89,79,65,30.38,29.93,14,6,17,0.02
2013-2-23,37.5,33.8,30.0,31.0,27.6,23.0,83,78,68,29.93,29.83,15,7,20,0.00
2013-2-24,32.8,30.6,28.2,25.0,23.9,22.0,86,76,70,30.05,29.83,13,6,18,0.00
2013-2-25,36.6,32.0,26.5,27.0,25.1,22.0,86,76,67,30.22,30.06,10,2,10,0.00
2013-2-26,42.8,35.0,26.7,32.0,26.1,22.0,90,72,47,30.19,29.65,21,8,24,0.83
2013-2-27,35.2,34.0,32.8,33.0,31.4,31.0,92,90,86,29.67,29.54,15,4,21,0.38
2013-2-28,35.6,33.7,32.1,33.0,31.1,29.0,92,90,84,29.73,29.51,11,5,16,0.22
2013-3-1,32.1,28.3,24.8,28.0,22.7,19.0,86,79,73,29.95,29.73,12,6,17,0.00
2013-3-2,26.6,23.8,21.2,20.0,17.9,16.0,82,78,71,29.95,29.88,12,5,16,0.00
2013-3-3,25.6,23.0,20.9,20.0,17.7,15.0,88,80,70,29.93,29.85,10,5,14,0.00
2013-3-4,30.7,25.4,18.1,22.0,18.2,14.0,83,74,61,30.05,29.92,13,6,19,0.00
2013-3-5,34.6,27.6,19.9,23.0,20.3,16.0,84,74,58,30.10,29.92,14,4,18,0.00
2013-3-6,40.4,34.0,26.9,31.0,27.8,22.0,84,78,69,30.11,29.91,12,5,15,0.00
2013-3-7,38.7,34.5,30.1,31.0,29.4,27.0,89,82,65,30.25,30.10,9,2,10,0.00
2013-3-8,41.8,35.5,28.1,31.0,26.2,22.0,90,71,48,30.37,30.25,13,3,16,0.00
2013-3-9,47.9,34.5,24.1,35.0,28.0,22.0,90,78,51,30.40,30.14,6,2,8,0.00
2013-3-10,64.8,52.4,35.5,31.0,26.7,22.0,70,39,27,30.14,29.88,15,6,23,0.00
2013-3-11,61.7,54.3,46.5,43.0,30.4,27.0,87,42,30,29.89,29.57,15,7,27,0.10
2013-3-12,45.9,32.9,34.1,42.0,15.2,-99.9,88,69,73,29.88,29.65,25,-117,25,0.02
2013-3-13,36.0,31.0,23.0,30.0,24.4,12.0,89,77,59,30.00,29.82,19,9,27,0.01
2013-3-14,33.3,25.4,21.5,16.0,3.4,-99.9,70,49,26,30.09,30.00,19,-60,27,0.00
2013-3-15,37.3,29.9,25.4,31.0,15.5,-99.9,83,68,56,30.04,29.75,19,-65,23,0.00
2013-3-16,29.8,25.8,20.9,21.0,12.7,-99.9,80,66,59,29.99,29.81,12,-39,14,0.00
2013-3-17,30.1,25.6,20.5,21.0,14.8,6.0,83,65,38,30.32,29.98,12,3,16,0.00
2013-3-18,35.5,28.7,21.0,31.0,19.0,8.0,87,68,45,30.31,29.64,16,7,25,0.01
2013-3-19,36.8,31.5,25.3,34.0,24.6,17.0,89,76,60,29.83,29.62,24,12,33,0.04
2013-3-20,31.6,26.6,22.5,22.0,18.6,14.0,88,73,50,29.85,29.81,16,7,21,0.00
2013-3-21,29.1,24.5,17.8,25.0,17.8,11.0,86,76,54,29.83,29.72,16,6,24,0.00
2013-3-22,33.1,28.9,25.3,26.0,23.7,21.0,88,81,69,29.92,29.75,13,6,20,0.00
2013-3-23,39.7,33.1,26.5,26.0,22.6,20.0,82,67,45,30.00,29.91,13,5,18,0.00
2013-3-24,37.1,32.1,24.5,28.0,22.3,18.0,88,69,51,30.00,29.67,13,4,17,0.00
2013-3-25,41.3,35.8,32.1,30.0,26.1,23.0,80,68,55,29.71,29.59,13,6,16,0.00
2013-3-26,47.7,39.4,32.4,32.0,27.9,21.0,80,65,35,29.95,29.71,12,4,13,0.00
2013-3-27,43.3,34.8,30.7,33.0,29.0,24.0,91,80,57,30.05,29.95,11,4,19,0.07
2013-3-28,43.0,36.5,32.9,34.0,31.2,23.0,90,82,46,30.19,30.05,13,3,14,0.07
2013-3-29,47.8,39.3,31.4,32.0,30.4,26.0,87,72,44,30.21,30.14,14,4,20,0.00
2013-3-30,49.1,38.8,26.2,34.0,25.0,19.0,91,63,32,30.20,30.00,15,4,19,0.00
2013-3-31,57.3,46.1,38.3,41.0,29.5,21.0,90,56,32,29.99,29.57,16,6,25,0.04
2013-4-1,42.9,34.6,27.5,40.0,23.3,13.0,91,65,40,29.96,29.55,22,8,29,0.02
2013-4-2,34.7,28.7,23.5,19.0,16.1,13.0,73,60,42,30.12,29.96,18,7,28,0.00
2013-4-3,36.2,29.9,26.3,21.0,16.0,10.0,72,57,36,30.39,30.13,19,6,22,0.00
2013-4-4,49.6,35.7,24.2,24.0,15.5,-5.0,78,50,12,30.33,29.88,18,6,21,0.00
2013-4-5,42.0,36.5,30.2,28.0,22.0,17.0,69,56,42,30.15,29.86,16,5,19,0.00
2013-4-6,50.6,36.7,21.5,27.0,18.7,10.0,83,52,20,30.28,29.95,10,2,13,0.00
2013-4-7,65.0,54.9,43.0,44.0,33.2,18.0,66,46,28,30.00,29.66,33,12,45,0.00
2013-4-8,60.5,45.9,31.2,48.0,35.7,27.0,86,69,42,30.08,29.70,14,4,21,0.31
2013-4-9,59.4,49.7,45.1,48.0,43.0,40.0,91,78,55,30.09,29.74,14,5,23,0.74
2013-4-10,46.2,43.0,39.0,44.0,41.0,37.0,93,92,91,29.99,29.83,18,5,21,0.75
2013-4-11,39.4,35.1,32.7,37.0,31.3,29.0,90,86,72,30.09,29.86,20,8,24,0.69
2013-4-12,47.9,38.6,33.7,46.0,35.4,30.0,93,88,76,29.84,29.46,21,11,28,0.66
2013-4-13,42.2,40.0,37.8,36.0,34.2,32.0,85,80,69,29.91,29.75,25,12,38,0.00
2013-4-14,46.0,40.6,35.2,33.0,28.6,25.0,83,63,49,30.14,29.91,15,5,17,0.00
2013-4-15,70.2,54.1,38.5,47.0,38.2,28.0,70,57,39,30.11,29.93,17,6,24,0.00
2013-4-16,61.9,55.8,45.6,54.0,47.8,36.0,91,75,58,30.19,29.91,23,9,35,0.11
2013-4-17,55.7,46.5,34.4,36.0,32.5,29.0,87,60,41,30.34,30.15,14,4,19,0.00
2013-4-18,81.4,64.2,46.0,58.0,48.8,31.0,71,58,44,30.15,29.61,22,10,31,0.00
2013-4-19,69.9,55.7,41.5,57.0,44.8,30.0,85,68,57,29.70,29.30,31,14,46,0.00
2013-4-20,41.5,36.6,32.9,32.0,25.4,19.0,89,65,49,30.39,29.69,30,11,38,0.03
2013-4-21,45.0,36.4,26.3,27.0,21.8,18.0,78,57,44,30.65,30.39,12,4,16,0.00
2013-4-22,62.8,48.0,33.6,36.0,27.2,21.0,69,47,26,30.55,30.26,14,4,16,0.00
2013-4-23,67.5,54.9,42.6,38.0,33.1,26.0,67,45,30,30.27,29.86,12,4,18,0.00
2013-4-24,60.1,51.9,37.1,55.0,43.3,33.0,94,75,41,30.01,29.59,23,8,25,0.43
2013-4-25,52.0,42.4,35.1,40.0,34.5,26.0,94,76,40,30.29,30.02,24,7,31,0.06
2013-4-26,53.3,44.6,35.1,39.0,31.9,24.0,95,65,37,30.48,30.30,10,3,14,0.01
2013-4-27,70.3,54.0,35.7,43.0,33.6,27.0,74,49,25,30.39,30.16,9,2,11,0.00
2013-4-28,72.5,59.1,47.3,50.0,42.2,36.0,78,56,27,30.15,29.92,18,6,25,0.06
2013-4-29,63.7,57.8,52.1,54.0,50.6,47.0,85,77,70,29.97,29.89,11,5,18,0.05
2013-4-30,73.1,63.9,56.2,55.0,53.0,51.0,88,69,50,30.14,29.97,12,5,17,0.00
2013-5-1,77.8,65.7,58.0,57.0,50.8,43.0,76,60,41,30.27,30.14,10,4,14,0.00
2013-5-2,77.4,65.7,51.0,50.0,42.1,36.0,76,45,23,30.35,30.17,14,3,16,0.00
2013-5-3,78.4,67.1,55.3,50.0,43.8,40.0,60,44,29,30.24,30.10,11,4,16,0.00
2013-5-4,70.6,63.4,54.8,47.0,40.2,32.0,64,44,26,30.26,30.12,12,4,17,0.00
2013-5-5,75.5,64.2,47.4,47.0,41.5,37.0,80,47,26,30.19,30.04,13,3,17,0.00
2013-5-6,75.6,61.7,43.5,44.0,35.4,22.0,83,43,14,30.17,30.03,10,2,15,0.00
2013-5-7,78.3,65.0,47.9,52.0,47.1,40.0,80,55,32,30.13,30.00,12,2,15,0.00
2013-5-8,71.2,63.7,55.1,59.0,53.6,48.0,86,71,51,30.04,29.94,7,2,10,0.10
2013-5-9,72.9,62.1,55.6,59.0,54.4,49.0,89,77,46,29.96,29.89,11,2,13,0.05
2013-5-10,75.1,61.0,51.4,60.0,53.6,47.0,87,77,54,29.95,29.71,18,4,23,0.36
2013-5-11,60.7,50.4,46.3,57.0,46.7,42.0,94,87,80,29.80,29.68,16,8,24,0.02
2013-5-12,50.1,42.6,37.2,47.0,34.7,30.0,91,74,55,30.00,29.72,23,9,37,0.08
2013-5-13,46.3,40.2,34.2,36.0,32.6,30.0,86,75,60,30.16,30.00,14,6,23,0.00
2013-5-14,55.5,47.0,32.7,41.0,33.0,25.0,93,62,31,30.16,29.89,16,4,18,0.00
2013-5-15,76.3,62.3,50.4,58.0,47.7,41.0,77,61,38,29.90,29.53,30,6,41,0.01
2013-5-16,74.3,61.8,49.4,49.0,43.5,30.0,88,56,23,30.00,29.71,18,5,23,0.00
2013-5-17,65.7,54.4,39.4,46.0,41.2,37.0,91,63,43,30.20,30.00,11,2,13,0.00
2013-5-18,72.7,60.7,46.8,47.0,42.1,37.0,82,53,33,30.24,30.11,12,3,14,0.00
2013-5-19,81.0,68.0,52.5,61.0,54.2,42.0,84,63,43,30.12,29.95,10,2,12,0.00
2013-5-20,84.9,73.3,61.2,64.0,60.5,56.0,84,66,41,30.02,29.83,10,3,21,0.00
2013-5-21,84.5,72.8,63.0,68.0,61.7,57.0,83,69,43,29.90,29.72,20,6,22,0.04
2013-5-22,84.7,72.2,60.1,64.0,59.9,56.0,89,67,44,29.78,29.62,21,6,23,0.00
2013-5-23,73.2,61.4,43.2,62.0,54.6,40.0,89,79,60,29.94,29.68,20,8,24,0.26
2013-5-24,50.6,43.3,38.1,40.0,35.3,33.0,91,75,52,30.28,29.95,17,6,20,0.12
2013-5-25,57.6,49.5,40.1,38.0,33.7,30.0,84,57,38,30.30,30.21,12,5,19,0.00
2013-5-26,63.3,52.7,42.7,38.0,32.0,25.0,83,49,24,30.26,30.21,10,3,17,0.00
2013-5-27,72.2,57.3,39.2,46.0,35.0,20.0,90,52,16,30.29,30.10,8,1,19,0.00
2013-5-28,66.4,59.1,51.9,61.0,51.7,37.0,87,77,45,30.14,29.88,9,2,18,2.21
2013-5-29,79.8,69.7,64.1,62.0,59.9,56.0,87,72,50,29.98,29.86,22,7,27,0.68
2013-5-30,83.4,73.9,64.4,64.0,60.4,57.0,79,64,51,30.09,29.99,14,5,19,0.00
2013-5-31,86.5,77.1,66.6,63.0,61.0,57.0,83,59,37,30.02,29.88,17,6,27,0.07
2013-6-1,84.7,73.0,65.5,66.0,63.2,61.0,85,73,51,29.91,29.73,21,6,27,1.09
2013-6-2,70.6,67.0,55.2,64.0,59.5,47.0,87,77,64,29.92,29.66,26,9,40,1.05
2013-6-3,59.9,53.7,45.7,47.0,44.0,40.0,86,70,49,30.08,29.92,15,4,17,0.00
2013-6-4,66.9,56.6,47.7,45.0,40.3,33.0,87,57,30,30.16,30.08,11,3,15,0.00
2013-6-5,69.5,58.0,47.4,47.0,43.7,38.0,89,62,39,30.21,30.05,16,3,16,0.00
2013-6-6,60.3,56.3,51.3,57.0,51.2,39.0,92,84,50,30.04,29.80,10,3,16,0.92
2013-6-7,58.9,56.2,52.9,55.0,53.7,51.0,92,91,86,29.87,29.81,6,2,10,0.01
2013-6-8,63.3,58.7,56.3,56.0,54.3,52.0,92,86,74,30.06,29.82,14,3,16,0.01
2013-6-9,76.4,64.6,52.7,57.0,53.8,50.0,91,70,44,30.17,30.07,7,2,10,0.00
2013-6-10,71.6,66.1,63.4,66.0,60.7,55.0,91,83,72,30.09,29.69,13,3,22,0.49
2013-6-11,73.1,66.1,59.2,62.0,58.8,55.0,92,78,58,29.86,29.66,13,4,20,0.11
2013-6-12,76.3,67.6,53.9,59.0,53.7,50.0,90,63,42,29.94,29.75,5,1,9,0.00
2013-6-13,67.8,62.1,57.3,60.0,56.8,54.0,91,83,61,29.80,29.51,13,3,23,1.15
2013-6-14,72.5,62.4,53.3,60.0,55.6,51.0,92,79,53,30.01,29.80,9,3,13,0.00
2013-6-15,72.3,64.6,52.4,56.0,50.2,43.0,86,62,36,30.09,29.95,12,4,18,0.00
2013-6-16,78.9,69.8,65.0,66.0,60.3,55.0,83,72,59,29.96,29.72,20,6,22,0.09
2013-6-17,81.7,71.3,61.8,62.0,58.9,54.0,86,67,39,29.93,29.81,12,4,20,0.00
2013-6-18,71.9,65.5,57.6,57.0,50.9,41.0,82,61,34,30.03,29.89,11,3,16,0.00
2013-6-19,70.5,62.7,54.4,51.0,43.9,35.0,82,54,29,30.20,30.04,9,2,13,0.00
2013-6-20,80.1,65.8,47.3,53.0,45.6,39.0,84,52,27,30.27,30.20,7,1,12,0.00
2013-6-21,84.1,70.4,52.7,56.0,48.4,31.0,85,51,17,30.26,30.14,7,1,11,0.00
2013-6-22,87.5,77.9,64.6,67.0,61.5,51.0,72,58,48,30.14,29.97,19,6,27,0.00
2013-6-23,87.2,77.8,69.5,71.0,66.9,63.0,89,70,46,30.07,29.98,23,6,25,0.00
2013-6-24,82.8,76.3,71.7,70.0,66.8,64.0,84,73,58,30.06,29.94,16,7,24,0.00
2013-6-25,77.6,73.0,69.8,70.0,66.8,64.0,87,81,68,29.95,29.81,18,6,25,0.10
2013-6-26,78.6,72.5,67.8,70.0,66.6,64.0,93,82,65,29.86,29.80,15,7,20,0.00
2013-6-27,77.2,70.2,64.0,72.0,66.3,62.0,94,87,78,29.82,29.66,16,1,18,0.56
2013-6-28,70.7,66.3,62.9,67.0,64.4,62.0,95,93,84,29.65,29.52,6,1,11,1.18
2013-6-29,76.7,67.5,62.1,66.0,62.2,60.0,95,84,62,29.70,29.49,12,3,14,0.02
2013-6-30,75.4,69.0,61.6,66.0,61.9,59.0,94,79,61,29.92,29.71,8,2,13,0.00
2013-7-1,70.1,65.8,60.3,63.0,61.0,58.0,92,84,76,30.07,29.92,11,4,19,0.12
2013-7-2,73.4,66.4,59.4,67.0,61.9,57.0,92,85,78,30.08,30.02,8,3,11,0.00
2013-7-3,86.6,75.2,64.6,74.0,68.8,63.0,96,82,59,30.14,30.05,9,2,14,0.01
2013-7-4,82.4,74.5,69.9,71.0,69.2,68.0,93,84,65,30.17,30.09,11,3,16,0.04
2013-7-5,80.8,74.5,70.3,72.0,69.5,67.0,94,85,67,30.12,30.05,14,4,19,0.07
2013-7-6,83.3,74.6,67.0,72.0,68.5,65.0,95,82,62,30.14,30.01,10,3,14,0.00
2013-7-7,78.7,73.7,70.8,71.0,68.7,66.0,95,85,68,30.05,29.93,18,6,25,0.11
2013-7-8,80.3,73.6,68.9,72.0,69.2,67.0,95,86,69,30.05,29.98,14,4,17,0.00
2013-7-9,80.1,73.8,70.4,72.0,70.0,68.0,94,88,76,30.02,29.88,11,3,14,0.03
2013-7-10,82.7,75.5,70.8,74.0,70.7,60.0,95,85,68,29.88,29.70,22,9,37,0.00
2013-7-11,77.9,69.3,61.0,63.0,58.9,56.0,90,70,50,30.02,29.84,10,2,13,0.00
2013-7-12,74.6,68.7,59.1,66.0,63.1,57.0,95,82,72,30.18,30.02,7,2,12,0.00
2013-7-13,83.6,72.6,60.3,70.0,65.2,59.0,95,79,56,30.23,30.17,10,2,11,0.00
2013-7-14,89.6,78.7,66.0,74.0,69.8,64.0,95,76,54,30.29,30.21,10,1,10,0.00
2013-7-15,90.2,80.1,71.8,74.0,69.7,57.0,94,73,35,30.28,30.21,5,1,10,0.00
2013-7-16,90.9,81.6,71.3,77.0,71.0,65.0,95,73,43,30.27,30.18,6,2,8,0.00
2013-7-17,90.0,82.1,76.6,79.0,75.9,72.0,95,82,56,30.21,30.06,17,5,21,0.00
2013-7-18,89.3,82.0,75.2,78.0,75.1,73.0,95,80,63,30.09,29.92,16,5,20,0.00
2013-7-19,87.1,81.1,68.6,77.0,73.1,66.0,96,77,61,29.92,29.69,25,10,38,2.13
2013-7-20,82.4,73.8,68.3,71.0,67.5,61.0,96,82,53,29.88,29.69,15,4,25,1.67
2013-7-21,78.7,71.6,65.2,65.0,62.1,59.0,87,72,56,29.99,29.88,9,2,12,0.00
2013-7-22,78.6,70.3,60.0,68.0,63.5,59.0,95,80,63,29.99,29.77,8,2,11,0.00
2013-7-23,79.3,71.6,63.7,71.0,66.1,56.0,95,83,59,29.76,29.62,20,4,23,0.39
2013-7-24,68.3,62.4,54.4,57.0,51.7,48.0,91,69,52,30.05,29.73,11,4,19,0.00
2013-7-25,73.6,63.8,51.2,59.0,53.6,50.0,95,72,45,30.14,30.05,6,1,12,0.00
2013-7-26,79.8,66.1,51.8,60.0,54.9,50.0,94,70,36,30.13,29.99,11,1,12,0.00
2013-7-27,76.3,68.6,60.2,67.0,62.4,56.0,92,81,65,29.99,29.79,8,2,16,0.21
2013-7-28,71.0,66.7,59.9,66.0,57.9,53.0,92,75,54,29.98,29.77,14,4,18,0.01
2013-7-29,70.1,63.1,58.4,60.0,57.0,54.0,93,81,64,30.16,29.97,14,4,17,0.16
2013-7-30,74.8,65.9,56.8,62.0,58.1,55.0,92,77,57,30.22,30.14,13,2,13,0.00
2013-7-31,77.4,69.2,57.8,65.0,59.8,53.0,96,75,43,30.16,29.91,7,1,10,0.00
2013-8-1,76.6,69.7,63.8,68.0,64.2,61.0,93,83,62,29.91,29.77,11,3,17,0.55
2013-8-2,75.6,67.8,56.0,67.0,60.9,55.0,96,80,56,29.89,29.83,23,5,26,0.25
2013-8-3,75.5,68.5,59.9,63.0,58.2,52.0,95,72,47,29.96,29.83,12,3,16,0.00
2013-8-4,72.7,64.3,55.7,59.0,53.9,48.0,93,71,49,30.09,29.96,9,3,16,0.00
2013-8-5,72.4,61.6,50.4,57.0,52.2,49.0,95,74,48,30.14,30.02,9,2,11,0.00
2013-8-6,80.8,67.9,53.9,62.0,56.8,52.0,93,70,42,30.06,29.96,7,1,10,0.00
2013-8-7,81.7,73.8,65.8,70.0,65.7,62.0,88,76,63,29.97,29.83,13,5,20,0.00
2013-8-8,81.9,74.1,66.5,72.0,69.1,65.0,95,84,71,29.95,29.88,6,2,18,0.45
2013-8-9,77.7,69.6,63.5,69.0,63.4,60.0,95,82,56,29.94,29.86,14,3,17,0.60
2013-8-10,74.1,66.5,58.9,63.0,56.0,47.0,93,71,47,30.10,29.94,9,2,11,0.00
2013-8-11,75.4,64.7,52.0,58.0,54.5,51.0,95,72,47,30.15,30.04,10,2,12,0.00
2013-8-12,74.7,68.7,59.5,66.0,61.6,57.0,92,79,59,30.06,29.84,14,3,18,0.00
2013-8-13,69.8,65.2,55.4,66.0,58.3,48.0,95,79,58,29.91,29.75,8,3,16,0.44
2013-8-14,70.7,60.9,52.4,53.0,49.9,45.0,90,69,40,30.11,29.90,14,4,20,0.00
2013-8-15,71.9,63.0,52.1,55.0,51.5,48.0,88,68,46,30.15,30.08,16,3,21,0.00
2013-8-16,74.8,64.5,52.0,60.0,55.4,50.0,92,74,53,30.21,30.13,8,2,13,0.00
2013-8-17,80.9,68.1,53.4,63.0,56.9,52.0,95,71,39,30.30,30.21,6,1,9,0.00
2013-8-18,80.6,69.0,55.2,64.0,58.3,53.0,94,72,43,30.25,30.10,8,1,12,0.00
2013-8-19,81.1,69.8,58.9,64.0,61.1,57.0,96,76,49,30.11,30.04,11,2,12,0.00
2013-8-20,80.3,71.6,63.9,69.0,64.7,62.0,95,80,57,30.14,30.06,15,4,18,0.01
2013-8-21,82.5,73.6,65.7,69.0,65.4,62.0,92,77,56,30.16,30.01,13,4,16,0.00
2013-8-22,82.5,72.2,64.7,72.0,62.1,-99.9,91,75,56,30.02,29.91,16,-19,19,0.00
2013-8-23,75.0,66.4,56.1,60.0,55.4,49.0,91,70,41,30.21,29.99,9,-9,18,0.00
2013-8-24,77.4,65.3,51.5,58.0,53.3,49.0,93,68,41,30.36,30.21,6,1,10,0.00
2013-8-25,79.6,68.7,51.5,64.0,55.7,49.0,92,66,40,30.34,30.13,17,4,19,0.00
2013-8-26,77.9,72.4,70.2,71.0,67.6,64.0,93,85,69,30.15,29.93,15,7,20,0.82
2013-8-27,82.7,73.8,67.8,74.0,70.0,66.0,94,88,71,29.94,29.86,11,3,15,0.62
2013-8-28,82.5,74.6,68.8,73.0,70.2,66.0,94,86,71,29.95,29.84,9,1,11,0.24
2013-8-29,84.4,74.2,63.6,72.0,66.6,62.0,94,79,56,30.04,29.95,7,1,10,0.00
2013-8-30,81.8,74.1,65.5,71.0,68.1,63.0,94,82,58,29.98,29.73,12,4,16,0.01
2013-8-31,78.8,74.2,70.3,70.0,68.5,66.0,94,82,70,29.83,29.70,11,3,24,0.00
2013-9-1,80.0,72.2,66.0,72.0,67.9,64.0,96,86,72,29.83,29.74,8,1,10,0.15
2013-9-2,76.5,70.1,63.0,72.0,65.3,55.0,97,85,68,29.80,29.70,15,3,19,0.01
2013-9-3,66.4,61.6,57.1,59.0,56.4,54.0,88,83,75,29.98,29.80,11,4,15,0.00
2013-9-4,72.9,65.7,55.5,64.0,57.6,48.0,90,76,45,30.03,29.97,18,6,29,0.01
2013-9-5,64.8,58.0,46.0,61.0,48.1,37.0,95,72,40,30.26,30.00,9,3,17,0.00
2013-9-6,66.6,55.7,40.2,52.0,46.2,39.0,96,73,44,30.33,30.12,9,2,14,0.00
2013-9-7,67.9,63.0,58.0,65.0,58.2,51.0,91,84,69,30.11,29.88,14,4,20,0.32
2013-9-8,69.0,63.6,49.4,66.0,52.9,45.0,89,70,46,30.11,29.86,10,3,18,0.00
2013-9-9,73.6,61.6,46.8,64.0,53.0,44.0,89,75,55,30.13,29.93,8,2,16,0.00
2013-9-10,86.3,78.5,69.9,73.0,69.2,64.0,83,74,57,29.97,29.89,22,9,32,0.04
2013-9-11,85.9,80.0,72.2,72.0,70.5,68.0,86,73,60,30.00,29.85,17,7,24,0.24
2013-9-12,75.2,70.2,63.6,68.0,64.2,55.0,88,81,67,29.90,29.72,13,4,20,0.22
2013-9-13,63.2,55.2,51.7,56.0,48.7,42.0,87,79,69,30.06,29.77,15,4,17,0.03
2013-9-14,64.4,55.7,50.0,50.0,42.3,28.0,81,63,27,30.14,30.05,8,2,12,0.00
2013-9-15,67.4,60.0,52.9,55.0,51.2,47.0,88,73,55,30.14,30.06,12,4,19,0.09
2013-9-16,57.0,51.9,41.2,54.0,47.3,39.0,90,84,63,30.39,30.07,9,2,17,0.02
2013-9-17,66.5,51.5,36.5,47.0,41.5,34.0,91,72,40,30.51,30.29,9,1,11,0.01
2013-9-18,73.6,59.3,45.9,52.0,46.7,40.0,88,66,34,30.29,30.10,6,1,11,0.00
2013-9-19,75.7,64.5,51.9,60.0,55.3,49.0,90,73,48,30.12,29.99,10,3,15,0.00
2013-9-20,80.6,71.1,56.8,68.0,62.8,54.0,91,76,62,30.00,29.70,14,4,19,0.00
2013-9-21,75.1,63.4,53.8,67.0,59.6,51.0,90,87,71,29.75,29.60,11,3,25,1.99
2013-9-22,55.7,53.1,50.6,51.0,44.1,40.0,90,72,61,30.05,29.75,8,3,16,0.00
2013-9-23,60.7,52.8,44.0,45.0,41.5,38.0,89,67,45,30.18,30.05,9,2,12,0.00
2013-9-24,64.7,52.1,40.6,52.0,43.7,38.0,91,75,40,30.18,30.03,5,1,8,0.00
2013-9-25,71.6,54.8,40.6,53.0,45.7,38.0,90,74,46,30.04,29.96,5,1,10,0.00
2013-9-26,71.7,57.9,42.7,53.0,48.1,40.0,90,72,45,30.14,30.00,9,1,10,0.00
2013-9-27,70.3,60.1,49.8,57.0,52.0,47.0,90,76,59,30.25,30.14,7,2,10,0.00
2013-9-28,77.7,63.6,50.0,59.0,52.5,47.0,89,70,43,30.27,30.13,8,1,13,0.01
2013-9-29,75.6,64.5,54.7,59.0,53.1,49.0,86,68,48,30.13,29.96,10,2,15,0.00
2013-9-30,71.9,66.4,59.6,62.0,58.6,55.0,88,76,66,29.99,29.93,12,4,20,0.00
2013-10-1,72.0,66.8,60.9,62.0,60.5,58.0,90,80,67,30.01,29.90,14,4,21,0.00
2013-10-2,75.4,68.4,55.3,63.0,61.0,50.0,88,78,60,30.07,29.91,12,4,19,0.00
2013-10-3,72.4,61.0,46.5,56.0,48.7,44.0,90,67,38,30.12,29.99,5,1,5,0.01
2013-10-4,72.6,67.6,61.2,68.0,64.1,56.0,90,88,84,30.03,29.97,6,2,11,1.45
2013-10-5,65.4,62.6,61.0,63.0,59.1,56.0,91,88,83,30.07,29.97,8,2,12,0.93
2013-10-6,82.7,70.8,60.4,70.0,63.9,57.0,91,80,61,29.97,29.64,11,3,17,1.70
2013-10-7,77.6,60.4,51.0,64.0,52.6,45.0,90,77,56,30.05,29.61,19,7,34,0.62
2013-10-8,67.6,55.5,45.5,49.0,45.9,42.0,89,72,43,30.33,30.05,6,1,7,0.01
2013-10-9,71.5,56.3,41.7,51.0,44.7,39.0,89,69,34,30.40,30.26,5,1,6,0.00
2013-10-10,71.2,55.5,42.5,55.0,45.8,39.0,90,73,31,30.28,30.14,6,1,11,0.00
2013-10-11,72.5,57.8,47.6,55.0,47.2,42.0,87,71,35,30.18,30.11,8,1,12,0.01
2013-10-12,77.7,62.3,45.1,53.0,44.8,39.0,89,58,26,30.17,30.08,7,1,10,0.00
2013-10-13,69.0,65.0,60.8,61.0,53.3,39.0,89,68,38,30.25,30.13,8,2,16,0.28
2013-10-14,61.3,55.6,44.5,57.0,47.3,41.0,88,75,55,30.35,30.25,5,1,16,0.08
2013-10-15,67.8,56.5,43.5,55.0,48.5,40.0,88,76,59,30.30,29.93,8,2,12,0.00
2013-10-16,66.5,62.1,53.4,58.0,54.4,46.0,87,76,62,29.93,29.75,17,6,22,0.53
2013-10-17,59.9,54.3,50.7,50.0,47.0,44.0,87,77,65,29.89,29.70,10,2,12,0.45
2013-10-18,59.5,52.8,46.6,47.0,41.8,36.0,85,68,43,29.92,29.75,21,6,22,0.00
2013-10-19,58.3,51.5,42.5,47.0,43.7,38.0,88,76,58,29.89,29.66,11,4,15,0.23
2013-10-20,54.3,46.7,40.0,43.0,38.3,34.0,86,73,51,29.98,29.79,14,4,17,0.00
2013-10-21,64.5,56.0,47.6,46.0,40.9,36.0,84,59,36,29.98,29.80,18,7,31,0.14
2013-10-22,50.2,44.6,40.3,46.0,31.3,23.0,86,61,43,29.89,29.77,20,6,29,0.18
2013-10-23,47.7,41.6,36.2,38.0,33.4,29.0,85,73,59,29.85,29.74,9,2,20,0.04
2013-10-24,47.4,39.4,33.3,35.0,31.6,28.0,84,74,49,30.02,29.83,16,5,26,0.00
2013-10-25,49.4,42.2,36.7,37.0,33.8,29.0,87,73,51,30.20,30.02,11,3,18,0.00
2013-10-26,46.2,44.2,42.2,40.0,34.6,28.0,84,70,54,30.09,29.74,31,12,42,0.34
2013-10-27,48.3,42.3,37.0,37.0,33.4,30.0,87,72,55,30.03,29.81,17,4,17,0.00
2013-10-28,48.7,43.4,31.9,39.0,30.0,20.0,73,60,41,30.39,30.02,16,4,19,0.00
2013-10-29,49.0,39.9,29.8,33.0,27.3,23.0,82,63,40,30.48,30.29,6,1,9,0.00
2013-10-30,60.0,47.1,38.6,41.0,37.0,34.0,86,70,40,30.29,30.07,3,1,7,0.00
2013-10-31,67.5,58.2,44.6,57.0,51.7,38.0,89,79,65,30.06,29.30,23,7,29,1.00
2013-11-1,65.1,55.5,48.0,58.0,47.7,42.0,88,75,64,29.64,29.12,38,14,50,0.16
2013-11-2,49.0,44.5,38.2,44.0,39.6,33.0,87,83,76,30.02,29.59,11,4,19,0.10
2013-11-3,38.0,33.4,23.8,33.0,25.1,21.0,93,72,57,30.54,30.03,9,3,15,0.00
2013-11-4,41.6,33.7,21.2,28.0,23.5,20.0,96,69,48,30.65,30.44,12,3,15,0.00
2013-11-5,57.8,48.9,36.1,38.0,32.4,23.0,71,54,43,30.45,30.30,11,5,19,0.00
2013-11-6,66.1,56.8,50.3,55.0,43.2,31.0,88,62,48,30.29,29.78,19,9,26,0.37
2013-11-7,55.8,43.3,38.6,52.0,34.7,28.0,88,72,60,30.01,29.77,16,6,23,0.13
2013-11-8,41.6,38.3,33.8,31.0,29.1,26.0,84,70,56,30.24,29.98,14,5,21,0.00
2013-11-9,51.9,44.2,33.9,47.0,32.3,26.0,90,64,44,30.22,29.76,17,6,25,0.07
2013-11-10,50.0,43.7,38.1,41.0,33.2,29.0,81,67,59,30.17,29.77,18,8,33,0.02
2013-11-11,45.2,38.3,30.1,39.0,31.7,21.0,88,77,62,30.17,29.92,22,7,30,0.32
2013-11-12,33.1,29.9,27.1,23.0,18.8,13.0,78,64,50,30.42,30.13,14,6,21,0.00
2013-11-13,39.6,33.2,24.7,28.0,22.6,16.0,83,66,48,30.46,30.09,25,10,37,0.00
2013-11-14,48.5,44.2,39.1,33.0,27.6,22.0,71,54,36,30.12,29.99,30,15,39,0.00
2013-11-15,51.3,47.6,45.5,37.0,30.1,27.0,72,52,41,30.09,30.01,26,9,29,0.00
2013-11-16,59.3,51.3,43.0,43.0,38.2,31.0,74,62,49,30.19,29.95,11,4,15,0.00
2013-11-17,63.4,58.2,52.1,56.0,50.5,43.0,91,76,64,29.95,29.29,24,10,35,0.34
2013-11-18,55.5,45.0,36.1,44.0,33.8,26.0,78,65,57,29.94,29.35,30,15,48,0.00
2013-11-19,37.1,34.5,26.6,26.0,23.2,21.0,83,64,53,30.46,29.95,15,5,24,0.00
2013-11-20,41.9,31.8,22.0,24.0,20.9,18.0,89,67,42,30.59,30.39,13,4,17,0.00
2013-11-21,44.4,40.3,31.4,39.0,27.4,14.0,92,62,37,30.41,30.22,12,5,19,0.09
2013-11-22,47.1,42.4,31.8,47.0,39.8,27.0,98,90,76,30.21,30.01,18,4,25,0.27
2013-11-23,32.8,27.8,19.5,28.0,20.2,9.0,90,73,55,30.25,30.04,21,8,31,0.00
2013-11-24,25.1,20.1,15.7,16.0,12.7,8.0,85,73,49,30.46,30.26,16,7,29,0.00
2013-11-25,36.7,29.3,18.5,31.0,18.3,11.0,89,65,43,30.40,30.08,23,10,32,0.00
2013-11-26,35.5,33.3,32.4,32.0,31.7,30.0,97,93,82,30.12,29.81,20,3,23,0.05
2013-11-27,32.6,30.1,24.0,32.0,26.5,18.0,98,87,67,29.94,29.71,13,4,23,0.00
2013-11-28,27.4,23.3,17.9,22.0,17.8,14.0,93,80,58,30.41,29.96,9,3,18,0.00
2013-11-29,31.0,24.3,18.8,22.0,18.0,14.0,94,78,57,30.70,30.41,5,1,7,0.00
2013-11-30,37.9,27.9,16.4,28.0,19.9,13.0,86,72,58,30.68,30.15,13,6,22,0.01
2013-12-1,39.7,37.2,34.6,33.0,30.2,28.0,81,76,66,30.15,29.92,11,4,13,0.07
2013-12-2,37.6,33.9,27.2,33.0,30.5,25.0,92,87,77,29.92,29.87,4,1,6,0.00
2013-12-3,38.3,31.0,21.6,30.0,26.0,20.0,96,82,63,30.00,29.90,7,2,10,0.01
2013-12-4,49.3,40.4,32.8,42.0,36.1,29.0,95,85,73,30.00,29.81,6,2,9,0.02
2013-12-5,59.9,49.7,35.8,53.0,43.5,31.0,87,79,67,30.03,29.70,19,10,33,0.00
2013-12-6,33.5,31.5,28.4,31.0,25.2,21.0,95,78,67,30.25,30.02,10,4,12,0.03
2013-12-7,28.3,25.6,19.8,22.0,17.4,12.0,82,71,58,30.57,30.25,10,4,18,0.00
2013-12-8,28.2,23.7,16.5,24.0,16.4,12.0,91,74,58,30.59,30.14,12,4,16,0.00
2013-12-9,38.5,32.7,27.4,36.0,29.3,22.0,97,87,76,30.14,29.85,27,11,35,0.01
2013-12-10,29.0,23.3,20.0,22.0,14.8,10.0,93,70,60,30.07,29.92,24,9,26,0.00
2013-12-11,25.4,21.3,15.0,19.0,13.0,9.0,85,70,62,30.31,30.08,17,7,27,0.00
2013-12-12,21.3,16.0,10.2,18.0,7.7,-99.9,92,72,58,30.38,30.09,25,-14,26,0.00
2013-12-13,25.6,19.1,14.7,21.0,14.6,10.0,91,82,70,30.40,30.07,16,6,25,0.00
2013-12-14,18.0,14.8,12.4,16.0,12.1,8.0,93,88,74,30.41,29.72,17,8,22,0.00
2013-12-15,25.3,20.6,15.9,22.0,17.3,10.0,95,87,69,29.89,29.64,22,6,28,0.00
2013-12-16,21.8,14.2,3.0,11.0,7.7,0.0,90,76,62,30.16,29.90,14,4,23,0.00
2013-12-17,28.5,19.1,4.7,25.0,14.9,2.0,90,84,71,30.10,29.89,11,4,18,0.00
2013-12-18,31.6,27.5,22.5,25.0,21.1,18.0,87,77,64,30.05,29.90,20,6,27,0.00
2013-12-19,40.6,36.0,28.1,33.0,29.1,20.0,88,76,65,30.02,29.86,25,7,29,0.01
2013-12-20,42.1,38.8,34.4,39.0,36.1,31.0,91,90,87,30.00,29.76,11,3,15,0.77
2013-12-21,49.0,38.6,31.4,48.0,37.8,31.0,98,96,91,29.86,29.70,14,5,18,1.02
2013-12-22,40.0,34.4,31.1,40.0,33.6,31.0,99,96,88,29.95,29.62,9,3,15,0.23
2013-12-23,38.2,33.2,25.5,35.0,28.4,19.0,88,82,73,30.29,29.94,14,6,20,0.00
2013-12-24,26.0,19.5,8.2,23.0,15.9,5.0,94,86,75,30.55,30.24,11,3,14,0.00
2013-12-25,28.3,15.1,1.0,20.0,9.9,-2.0,92,80,69,30.59,30.14,9,2,12,0.00
2013-12-26,31.7,27.7,19.5,29.0,22.4,14.0,96,80,70,30.28,30.02,16,6,21,0.00
2013-12-27,37.0,29.3,19.3,33.0,25.1,14.0,95,85,70,30.28,30.05,18,6,22,0.00
2013-12-28,45.1,39.7,36.1,36.0,34.3,33.0,93,81,66,30.07,29.90,26,11,33,0.00
2013-12-29,46.1,40.9,26.9,39.0,32.5,22.0,93,73,53,29.90,29.60,17,8,23,0.00
2013-12-30,26.6,19.4,16.7,22.0,12.1,7.0,86,73,58,30.23,29.81,16,5,25,0.00
2013-12-31,22.4,18.0,12.8,20.0,11.2,5.0,90,75,59,30.22,29.95,21,6,28,0.00
2014-1-1,21.4,16.1,12.4,13.0,8.7,4.0,87,73,55,30.38,30.22,15,5,20,0.00
2014-1-2,14.3,10.2,5.4,11.0,6.5,0.0,89,84,79,30.26,29.98,17,8,24,0.00